Station: Coonawarra  

  Atmospheric Gas Attenuation - ITU Rec 676-11   ----------------- dB/100km -----------------
Date Time Temp RH % AH g/m3 Dew Point Wind Direction Speed kph Gust kph Barometer mB Rainfall Since 9am 24GHz 47GHz 76GHz 122GHz 134GHz 241GHz
09/05 19:30 11.8 91 9.58 10.4 11 15 1029.8 0.2 21.8 28.8 45.7 120.0 116.1 399.8
09/05 19:20 11.8 91 9.58 10.4 11 13 1029.8 0.2 21.8 28.8 45.7 120.0 116.1 399.8
09/05 19:10 11.8 90 9.47 10.2 9 11 1029.9 0.2 21.5 28.6 45.3 118.8 114.5 394.4
09/05 19:00 12.2 89 9.61 10.4 9 11 1029.7 0.2 21.8 28.7 45.6 119.8 115.9 399.2
09/05 18:50 12.8 87 9.75 10.7 9 9 1029.8 0.2 22.1 28.8 45.9 120.4 117.0 403.1
09/05 18:40 13.3 86 9.94 11 9 9 1029.7 0.2 22.5 28.9 46.4 121.8 118.9 409.8
09/05 18:30 13.8 84 10.01 11.1 11 15 1029.5 0.2 22.6 28.9 46.4 121.8 119.0 410.5
09/05 18:20 14 83 10.01 11.2 11 11 1029.5 0.2 22.6 28.8 46.3 121.5 118.7 409.5
09/05 18:10 14.2 81 9.89 11 13 15 1029.4 0.2 22.3 28.5 45.7 119.8 116.7 402.5
09/05 18:00 14.3 81 9.95 11.1 13 17 1029.2 0.2 22.4 28.6 45.8 120.3 117.4 404.9
09/05 17:50 14.5 79 9.83 10.9 15 19 1029.1 0.2 22.2 28.3 45.2 118.7 115.4 398.0
09/05 17:40 14.5 81 10.07 11.3 11 15 1029 0.2 22.7 28.7 46.2 121.4 118.8 409.6
09/05 17:30 14.7 80 10.07 11.3 15 20 1028.8 0.2 22.7 28.7 46.1 121.0 118.4 408.5
09/05 17:20 15 79 10.13 11.4 15 17 1028.7 0.2 22.8 28.7 46.2 121.2 118.8 409.8
09/05 17:10 15.2 78 10.12 11.4 13 15 1028.6 0.2 22.7 28.6 46.0 120.8 118.3 408.2
09/05 17:00 15.4 76 9.99 11.2 15 20 1028.6 0.2 22.5 28.3 45.3 119.0 116.2 400.9
09/05 16:50 15.6 76 10.11 11.4 13 17 1028.5 0.2 22.7 28.4 45.7 120.1 117.6 405.6
09/05 16:40 15.8 76 10.23 11.6 19 20 1028.4 0.2 22.9 28.6 46.1 121.1 118.9 410.3
09/05 16:30 16 74 10.08 11.4 17 22 1028.4 0.2 22.6 28.2 45.4 119.1 116.5 402.1
09/05 16:20 16.1 75 10.28 11.7 17 19 1028.3 0.2 23.0 28.5 46.1 121.2 119.1 411.1
09/05 16:10 16.5 74 10.39 11.9 19 20 1028.3 0.2 23.2 28.6 46.4 121.8 120.0 414.3
09/05 16:00 17.1 70 10.19 11.6 15 20 1028.2 0.2 22.8 28.1 45.2 118.6 116.4 401.6
09/05 15:50 16.8 74 10.58 12.1 11 13 1028.1 0.2 23.6 28.8 47.0 123.4 122.1 421.7
09/05 15:40 16.3 76 10.54 12.1 17 17 1028.1 0.2 23.6 28.9 47.1 123.7 122.4 422.5
09/05 15:30 16.9 73 10.5 12 13 20 1028 0.2 23.5 28.6 46.6 122.3 120.9 417.3
09/05 15:20 17 69 9.98 11.3 15 17 1028.1 0.2 22.3 27.7 44.4 116.5 113.7 392.2
09/05 15:10 17.5 68 10.14 11.5 11 13 1028 0.2 22.7 27.8 44.7 117.5 115.1 397.2
09/05 15:00 16.9 73 10.5 12 15 19 1028 0.2 23.5 28.6 46.6 122.3 120.9 417.3
09/05 14:50 17.2 69 10.1 11.5 15 17 1028 0.2 22.6 27.9 44.7 117.5 115.0 396.8
09/05 14:40 17.6 70 10.5 12.1 9 9 1028 0.2 23.4 28.4 46.1 121.2 119.8 413.6
09/05 14:30 16.9 69 9.92 11.2 13 17 1028.1 0.2 22.2 27.7 44.2 116.0 113.0 389.9
09/05 14:20 17.3 67 9.87 11.1 13 15 1028.1 0.2 22.1 27.5 43.8 114.8 111.8 385.6
09/05 14:10 17 68 9.84 11.1 7 11 1028.1 0.2 22.0 27.5 43.8 114.9 111.8 385.7
09/05 14:00 16.6 73 10.31 11.7 13 17 1028.2 0.2 23.1 28.4 46.0 120.7 118.7 409.9
09/05 13:50 17 69 9.98 11.3 11 13 1028.2 0.2 22.3 27.7 44.4 116.5 113.7 392.2
09/05 13:40 16.7 69 9.81 11 15 15 1028.3 0.2 22.0 27.6 43.8 115.1 111.9 385.8
09/05 13:30 17 67 9.69 10.8 11 17 1028.3 0.2 21.7 27.3 43.2 113.4 109.8 378.7
09/05 13:20 16.5 64 8.99 9.7 11 13 1028.5 0.2 20.3 26.3 40.7 106.6 101.3 348.9
09/05 13:10 16.2 69 9.51 10.5 13 15 1028.6 0.2 21.4 27.2 42.9 112.6 108.6 374.3
09/05 13:00 16.4 71 9.91 11.1 15 22 1028.7 0.2 22.2 27.8 44.4 116.7 113.7 392.1
09/05 12:50 16.1 73 10.01 11.3 15 17 1028.9 0.2 22.5 28.1 45.0 118.2 115.5 398.4
09/05 12:40 15.9 75 10.16 11.5 11 13 1029 0.2 22.8 28.4 45.8 120.2 117.8 406.6
09/05 12:30 16.5 74 10.39 11.9 11 20 1028.9 0.2 23.2 28.6 46.4 121.8 120.1 414.4
09/05 12:20 16 75 10.22 11.6 15 20 1029.3 0.2 22.9 28.5 46.0 120.8 118.5 409.1
09/05 12:10 15.4 79 10.38 11.8 13 15 1029.5 0.2 23.3 29.0 47.0 123.5 121.7 420.0
09/05 12:00 15.4 81 10.64 12.2 13 17 1029.5 0.2 23.8 29.4 48.1 126.5 125.3 432.7
09/05 11:50 15.2 82 10.64 12.1 17 19 1029.7 0.2 23.8 29.5 48.3 126.8 125.7 433.9
09/05 11:40 15.1 81 10.45 11.9 7 9 1029.8 0.2 23.4 29.2 47.5 124.8 123.2 425.2
09/05 11:30 14.7 84 10.58 12 9 11 1029.9 0.2 23.7 29.6 48.3 127.0 125.7 433.8
09/05 11:20 14.3 83 10.2 11.5 7 7 1030.1 0.2 23.0 29.1 46.9 123.3 121.0 417.4
09/05 11:10 14.2 84 10.26 11.5 7 9 1030.2 0.2 23.1 29.2 47.3 124.1 122.0 420.9
09/05 11:00 14 84 10.13 11.3 11 17 1030.1 0.2 22.8 29.0 46.8 123.0 120.5 415.5
09/05 10:50 14 84 10.13 11.3 13 15 1030.2 0.2 22.8 29.0 46.8 123.0 120.5 415.6
09/05 10:40 14 88 10.61 12 9 11 1030.2 0.2 23.9 29.9 48.9 128.5 127.3 439.4
09/05 10:30 13.6 89 10.47 11.8 11 15 1030.1 0.2 23.6 29.8 48.5 127.5 125.9 434.6
09/05 10:20 13.5 91 10.64 12.1 9 11 1030.2 0.2 23.9 30.1 49.3 129.7 128.6 443.7
09/05 10:10 13.3 93 10.75 12.2 11 13 1030.2 0.2 24.2 30.4 50.0 131.3 130.5 450.4
09/05 10:00 13.2 96 11.02 12.6 9 13 1030.1 0.2 24.8 30.9 51.2 134.7 134.6 464.8
09/05 09:50 13.1 96 10.96 12.5 9 9 1030.2 0.2 24.7 30.8 51.0 134.1 133.9 462.3
09/05 09:40 13 96 10.89 12.4 13 15 1030.1 0.2 24.5 30.7 50.8 133.5 133.0 459.3
09/05 09:30 13.5 97 11.35 13 11 19 1030 0.2 25.5 31.4 52.5 138.1 138.9 479.8
09/05 09:20 12.9 97 10.93 12.4 13 15 1030.2 0.2 24.6 30.8 51.0 134.1 133.8 462.0
09/05 09:10 13 98 11.11 12.7 11 15 1030.3 0.2 25.0 31.1 51.8 136.1 136.3 470.7
09/05 09:00 12.9 98 11.05 12.6 11 17 1030.2 0 24.9 31.0 51.6 135.6 135.6 468.2
09/05 08:50 12.8 98 10.98 12.5 11 13 1030.2 1.4 24.7 31.0 51.3 134.9 134.7 465.2
09/05 08:40 12.5 98 10.78 12.2 13 17 1030.1 1.4 24.3 30.7 50.6 133.0 132.3 456.7
09/05 08:30 12.5 98 10.78 12.2 13 15 1030 1.4 24.3 30.7 50.6 133.0 132.3 456.6
09/05 08:20 12.4 98 10.71 12.1 11 13 1030.1 1.4 24.2 30.6 50.4 132.4 131.4 453.7
09/05 08:10 12.2 98 10.58 11.9 9 11 1030 1.4 23.9 30.4 49.9 131.1 129.9 448.1
09/05 08:00 12.2 98 10.58 11.9 9 13 1029.8 1.4 23.9 30.4 49.9 131.1 129.9 448.1
09/05 07:50 12.1 98 10.51 11.8 9 11 1029.8 1.2 23.8 30.3 49.6 130.5 129.0 445.1
09/05 07:40 12 98 10.45 11.7 7 9 1029.7 1.2 23.6 30.3 49.4 129.9 128.3 442.6
09/05 07:30 11.9 98 10.38 11.6 7 9 1029.6 1.2 23.5 30.2 49.2 129.2 127.4 439.5
09/05 07:20 11.8 98 10.32 11.5 6 7 1029.6 1.2 23.4 30.1 49.0 128.7 126.7 437.0
09/05 07:10 11.9 98 10.38 11.6 7 7 1029.5 1.2 23.5 30.2 49.2 129.2 127.4 439.5
09/05 07:00 12 98 10.45 11.7 9 13 1029.3 1.2 23.6 30.2 49.4 129.8 128.2 442.4
09/05 06:50 11.9 98 10.38 11.6 7 9 1029.4 1.2 23.5 30.2 49.2 129.2 127.4 439.5
09/05 06:40 11.9 98 10.38 11.6 7 9 1029.3 1.2 23.5 30.2 49.2 129.2 127.4 439.4
09/05 06:30 11.8 98 10.32 11.5 7 7 1029.2 1.2 23.4 30.1 49.0 128.6 126.7 436.9
09/05 06:20 11.9 98 10.38 11.6 6 7 1029.2 1.2 23.5 30.2 49.2 129.2 127.4 439.4
09/05 06:10 11.9 98 10.38 11.6 7 9 1029.1 1.2 23.5 30.1 49.2 129.2 127.4 439.4
09/05 06:00 11.9 98 10.38 11.6 6 7 1028.9 1.2 23.5 30.1 49.1 129.1 127.4 439.3
09/05 05:50 11.8 98 10.32 11.5 7 9 1028.9 1.2 23.4 30.1 48.9 128.6 126.6 436.8
09/05 05:40 11.6 98 10.19 11.3 7 7 1028.7 1.2 23.1 29.9 48.5 127.4 125.1 431.2
09/05 05:30 11.5 98 10.12 11.2 9 11 1028.7 1.2 22.9 29.8 48.2 126.7 124.2 428.2
09/05 05:20 11.5 98 10.12 11.2 9 11 1028.7 1.2 22.9 29.8 48.2 126.7 124.2 428.2
09/05 05:10 11.6 98 10.19 11.3 7 9 1028.6 1.2 23.1 29.9 48.5 127.3 125.0 431.2
09/05 05:00 11.6 98 10.19 11.3 4 9 1028.6 1.2 23.1 29.9 48.5 127.3 125.0 431.2
09/05 04:50 11.6 98 10.19 11.3 0 0 1028.5 1.2 23.1 29.9 48.5 127.3 125.0 431.2
09/05 04:40 11.6 98 10.19 11.3 0 0 1028.5 1.2 23.1 29.9 48.5 127.3 125.0 431.2
09/05 04:30 11.6 98 10.19 11.3 0 6 1028.4 1.2 23.1 29.9 48.5 127.3 125.0 431.1
09/05 04:20 11.6 98 10.19 11.3 4 6 1028.3 1.2 23.1 29.9 48.5 127.3 125.0 431.1
09/05 04:10 11.5 98 10.12 11.2 6 6 1028.3 1.2 23.0 29.8 48.2 126.7 124.2 428.1
09/05 04:00 11.7 98 10.25 11.4 6 9 1028.2 1.2 23.2 29.9 48.7 127.8 125.7 433.6
09/05 03:50 11.7 98 10.25 11.4 7 9 1028.1 1.2 23.2 29.9 48.7 127.8 125.7 433.5
09/05 03:40 11.8 98 10.32 11.5 6 7 1028.2 1.2 23.4 30.0 48.9 128.5 126.6 436.6
09/05 03:30 11.8 98 10.32 11.5 9 13 1028.2 1.2 23.4 30.0 48.9 128.5 126.6 436.6
09/05 03:20 11.8 98 10.32 11.5 9 11 1028.2 1.2 23.4 30.0 48.9 128.5 126.6 436.6
09/05 03:10 11.8 98 10.32 11.5 7 9 1028.2 1.2 23.4 30.0 48.9 128.5 126.6 436.6
09/05 03:00 11.8 98 10.32 11.5 7 9 1028.3 1.2 23.4 30.0 48.9 128.5 126.6 436.6

Last Refresh: 09-May-2026 19:42:33

Bureau of Meteorology